Time;durP1;ratioP1;P1;durP2;ratioP2;P2;SDS_P1;SDS_P2;PMS_P1;PMS_P2;Temp;Humidity;BMP_temperature;BMP_pressure;BME280_temperature;BME280_humidity;BME280_pressure;Samples;Min_cycle;Max_cycle;Signal;HPM_P1;HPM_P2
2022/10/01 00:00:19;;;;;;;;;;;;;;;19.86;61.84;98534.81;2056215;28;19926;-50
2022/10/01 00:01:21;;;;;;;;;;;;;;;19.85;61.65;98535.88;2057154;28;19930;-48
2022/10/01 00:02:21;;;;;;;;;;;;;;;19.85;61.93;98533.16;2057992;28;19922;-49
2022/10/01 00:03:24;;;;;;;;;;;;;;;19.85;61.52;98536.69;2056607;28;20340;-49
2022/10/01 00:04:24;;;;;;;;;;;;;;;19.84;61.50;98532.34;2056104;28;19926;-49
2022/10/01 00:05:26;;;;;;;;;;;;;;;19.85;61.63;98535.88;2054475;28;19984;-52
2022/10/01 00:06:27;;;;;;;;;;;;;;;19.84;61.71;98545.81;2057960;28;19925;-50
2022/10/01 00:07:28;;;;;;;;;;;;;;;19.84;61.79;98534.22;2059226;28;19922;-49
2022/10/01 00:08:29;;;;;;;;;;;;;;;19.84;61.56;98545.00;2056062;28;20461;-49
2022/10/01 00:09:31;;;;;;;;;;;;;;;19.83;61.70;98538.75;2057802;28;19930;-48
2022/10/01 00:10:32;;;;;;;;;;;;;;;19.85;61.55;98546.63;2055456;28;20033;-50
2022/10/01 00:11:33;;;;;;;;;;;;;;;19.83;61.77;98552.22;2054729;28;19938;-51
2022/10/01 00:12:34;;;;;;;;;;;;;;;19.83;61.54;98546.81;2056519;28;19928;-50
2022/10/01 00:13:37;;;;;;;;;;;;;;;19.83;61.58;98552.22;2055183;28;20435;-50
2022/10/01 00:14:38;;;;;;;;;;;;;;;19.85;61.51;98552.00;2054170;28;19979;-55
2022/10/01 00:15:40;;;;;;;;;;;;;;;19.84;61.87;98556.56;2060415;28;19948;-51
2022/10/01 00:16:41;;;;;;;;;;;;;;;19.85;61.79;98546.63;2054437;28;19922;-50
2022/10/01 00:17:43;;;;;;;;;;;;;;;19.83;61.77;98549.53;2055707;28;19981;-50
2022/10/01 00:18:44;;;;;;;;;;;;;;;19.83;61.54;98549.53;2055573;28;19929;-54
2022/10/01 00:19:46;;;;;;;;;;;;;;;19.83;61.58;98543.31;2060331;28;20817;-48
2022/10/01 00:20:46;;;;;;;;;;;;;;;19.83;61.68;98551.38;2054853;28;20449;-54
2022/10/01 00:21:48;;;;;;;;;;;;;;;19.82;61.59;98552.44;2059386;28;19976;-48
2022/10/01 00:22:48;;;;;;;;;;;;;;;19.84;61.57;98556.56;2055179;28;19933;-55
2022/10/01 00:23:54;;;;;;;;;;;;;;;19.83;61.70;98546.81;2054289;28;20377;-50
2022/10/01 00:24:54;;;;;;;;;;;;;;;19.84;61.82;98553.06;2055854;28;19925;-54
2022/10/01 00:25:56;;;;;;;;;;;;;;;19.83;61.91;98554.91;2054776;28;19926;-53
2022/10/01 00:26:56;;;;;;;;;;;;;;;19.84;61.50;98553.06;2056895;28;19929;-55
2022/10/01 00:27:58;;;;;;;;;;;;;;;19.82;61.62;98553.25;2052598;28;19933;-53
2022/10/01 00:29:01;;;;;;;;;;;;;;;19.82;61.64;98555.94;2058298;28;19921;-51
2022/10/01 00:30:03;;;;;;;;;;;;;;;19.83;61.78;98559.47;2055557;28;20418;-49
2022/10/01 00:31:05;;;;;;;;;;;;;;;19.83;61.59;98565.66;2055874;28;19926;-47
2022/10/01 00:32:08;;;;;;;;;;;;;;;19.84;61.58;98561.97;2056666;28;19993;-49
2022/10/01 00:33:09;;;;;;;;;;;;;;;19.83;61.47;98567.53;2057791;28;19933;-55
2022/10/01 00:34:12;;;;;;;;;;;;;;;19.83;61.78;98560.28;2055239;28;19991;-53
2022/10/01 00:35:13;;;;;;;;;;;;;;;19.83;61.61;98554.09;2059026;28;19932;-47
2022/10/01 00:36:14;;;;;;;;;;;;;;;19.83;61.67;98554.91;2056878;28;19965;-51
2022/10/01 00:37:16;;;;;;;;;;;;;;;19.82;61.85;98555.94;2055645;28;19922;-48
2022/10/01 00:38:18;;;;;;;;;;;;;;;19.83;61.78;98554.09;2057185;28;19933;-52
2022/10/01 00:39:18;;;;;;;;;;;;;;;19.82;61.50;98558.63;2057700;28;19964;-50
2022/10/01 00:40:20;;;;;;;;;;;;;;;19.83;61.58;98556.78;2055242;28;19969;-54
2022/10/01 00:41:21;;;;;;;;;;;;;;;19.82;61.56;98564.03;2055828;28;19933;-49
2022/10/01 00:42:24;;;;;;;;;;;;;;;19.82;61.66;98561.34;2057601;28;19926;-48
2022/10/01 00:43:25;;;;;;;;;;;;;;;19.82;61.80;98558.63;2057850;28;19922;-50
2022/10/01 00:44:33;;;;;;;;;;;;;;;19.82;61.58;98555.94;2055963;28;19932;-50
2022/10/01 00:45:33;;;;;;;;;;;;;;;19.82;61.88;98557.81;2054374;28;20439;-49
2022/10/01 00:46:39;;;;;;;;;;;;;;;19.82;61.87;98555.94;2054679;28;19993;-50
2022/10/01 00:47:41;;;;;;;;;;;;;;;19.80;61.38;98558.03;2060226;28;20624;-52
2022/10/01 00:48:47;;;;;;;;;;;;;;;19.81;61.67;98554.31;2056212;28;20497;-50
2022/10/01 00:49:49;;;;;;;;;;;;;;;19.82;61.71;98561.34;2055036;28;19925;-49
2022/10/01 00:50:51;;;;;;;;;;;;;;;19.81;61.83;98557.00;2057590;28;20000;-49
2022/10/01 00:51:54;;;;;;;;;;;;;;;19.81;61.82;98551.63;2056299;28;19922;-50
2022/10/01 00:52:57;;;;;;;;;;;;;;;19.79;61.83;98559.06;2055812;28;19926;-50
2022/10/01 00:54:01;;;;;;;;;;;;;;;19.80;61.74;98566.09;2054601;28;20411;-49
2022/10/01 00:55:05;;;;;;;;;;;;;;;19.81;61.65;98564.25;2055669;28;20048;-49
2022/10/01 00:56:06;;;;;;;;;;;;;;;19.82;61.77;98563.22;2055752;28;19930;-49
2022/10/01 00:57:07;;;;;;;;;;;;;;;19.81;61.74;98564.25;2057048;28;20021;-50
2022/10/01 00:58:09;;;;;;;;;;;;;;;19.81;61.82;98558.88;2055662;28;20435;-48
2022/10/01 00:59:11;;;;;;;;;;;;;;;19.81;61.74;98559.69;2057447;28;20377;-49
2022/10/01 01:00:14;;;;;;;;;;;;;;;19.81;61.56;98557.00;2057139;28;19922;-49
2022/10/01 01:01:15;;;;;;;;;;;;;;;19.80;61.83;98560.72;2054400;28;20013;-49
2022/10/01 01:02:16;;;;;;;;;;;;;;;19.80;61.62;98554.50;2055755;28;20399;-50
2022/10/01 01:03:17;;;;;;;;;;;;;;;19.80;61.77;98558.03;2053849;28;20545;-52
2022/10/01 01:04:18;;;;;;;;;;;;;;;19.78;61.56;98562.81;2055971;28;19953;-51
2022/10/01 01:05:19;;;;;;;;;;;;;;;19.80;61.82;98566.09;2056874;28;19985;-52
2022/10/01 01:06:20;;;;;;;;;;;;;;;19.80;61.61;98559.88;2056376;28;19985;-51
2022/10/01 01:07:21;;;;;;;;;;;;;;;19.80;61.80;98565.28;2053990;28;19925;-49
2022/10/01 01:08:22;;;;;;;;;;;;;;;19.80;61.63;98559.88;2056665;28;19996;-48
2022/10/01 01:09:25;;;;;;;;;;;;;;;19.80;61.70;98566.09;2054330;28;19922;-49
2022/10/01 01:10:30;;;;;;;;;;;;;;;19.80;61.46;98562.59;2054607;28;19928;-49
2022/10/01 01:11:36;;;;;;;;;;;;;;;19.80;61.82;98562.59;2058825;28;20359;-49
2022/10/01 01:12:47;;;;;;;;;;;;;;;19.80;61.73;98558.03;2051826;28;19932;-49
2022/10/01 01:13:54;;;;;;;;;;;;;;;19.80;61.71;98570.66;2053757;28;19929;-49
2022/10/01 01:15:00;;;;;;;;;;;;;;;19.80;61.87;98570.66;2055973;28;19926;-50
2022/10/01 01:16:05;;;;;;;;;;;;;;;19.79;61.51;98569.84;2055630;28;19933;-48
2022/10/01 01:17:09;;;;;;;;;;;;;;;19.79;61.63;98571.72;2055907;28;19922;-48
2022/10/01 01:18:13;;;;;;;;;;;;;;;19.80;61.79;98574.16;2050824;28;19929;-52
2022/10/01 01:19:28;;;;;;;;;;;;;;;19.78;61.85;98573.56;2057353;28;20413;-50
2022/10/01 01:20:43;;;;;;;;;;;;;;;19.79;61.81;98575.22;2052490;28;19975;-49
2022/10/01 01:21:46;;;;;;;;;;;;;;;19.79;61.74;98577.91;2056437;28;19928;-50
2022/10/01 01:22:53;;;;;;;;;;;;;;;19.81;61.60;98577.72;2054388;28;19922;-52
2022/10/01 01:24:19;;;;;;;;;;;;;;;19.80;61.73;98582.25;2056258;28;19922;-49
2022/10/01 01:25:24;;;;;;;;;;;;;;;19.80;61.65;98579.56;2056544;28;20010;-49
2022/10/01 01:26:31;;;;;;;;;;;;;;;19.79;61.77;98575.22;2056381;28;19921;-50
2022/10/01 01:27:34;;;;;;;;;;;;;;;19.79;61.77;98574.41;2059755;28;19926;-52
2022/10/01 01:28:39;;;;;;;;;;;;;;;19.79;61.58;98585.97;2054979;28;19930;-51
2022/10/01 01:29:42;;;;;;;;;;;;;;;19.79;61.48;98579.78;2054894;28;20401;-49
2022/10/01 01:30:44;;;;;;;;;;;;;;;19.80;61.78;98581.44;2055140;28;20426;-51
2022/10/01 01:31:45;;;;;;;;;;;;;;;19.79;61.51;98577.91;2055315;28;20028;-51
2022/10/01 01:32:51;;;;;;;;;;;;;;;19.78;61.82;98578.97;2054449;28;20912;-49
2022/10/01 01:33:53;;;;;;;;;;;;;;;19.79;61.39;98580.59;2055162;28;19976;-49
2022/10/01 01:34:58;;;;;;;;;;;;;;;19.79;61.36;98583.28;2055670;28;19925;-49
2022/10/01 01:36:03;;;;;;;;;;;;;;;19.79;61.57;98580.59;2056255;28;19929;-49
2022/10/01 01:37:10;;;;;;;;;;;;;;;19.79;61.50;98585.97;2056364;28;19922;-52
2022/10/01 01:38:13;;;;;;;;;;;;;;;19.79;61.72;98585.97;2055381;28;19933;-49
2022/10/01 01:39:17;;;;;;;;;;;;;;;19.80;61.59;98592.19;2058892;28;19926;-49
2022/10/01 01:40:18;;;;;;;;;;;;;;;19.79;61.82;98582.47;2058622;28;19976;-50
2022/10/01 01:41:20;;;;;;;;;;;;;;;19.80;61.43;98587.63;2056389;28;19972;-49
2022/10/01 01:42:25;;;;;;;;;;;;;;;19.79;61.41;98582.47;2056181;28;19922;-48
2022/10/01 01:43:30;;;;;;;;;;;;;;;19.78;61.66;98581.66;2056943;28;19922;-48
2022/10/01 01:44:34;;;;;;;;;;;;;;;19.79;61.71;98579.78;2058334;28;20285;-52
2022/10/01 01:45:39;;;;;;;;;;;;;;;19.79;61.83;98585.16;2055337;28;19976;-49
2022/10/01 01:46:43;;;;;;;;;;;;;;;19.79;61.55;98585.16;2053629;28;20380;-51
2022/10/01 01:47:45;;;;;;;;;;;;;;;19.78;61.53;98573.56;2060390;28;19970;-49
2022/10/01 01:48:49;;;;;;;;;;;;;;;19.78;61.69;98580.81;2057829;28;19973;-49
2022/10/01 01:49:52;;;;;;;;;;;;;;;19.79;61.67;98577.09;2054095;28;20320;-50
2022/10/01 01:50:56;;;;;;;;;;;;;;;19.81;61.70;98580.41;2056204;28;21959;-50
2022/10/01 01:52:01;;;;;;;;;;;;;;;19.78;61.33;98587.03;2060192;28;20597;-50
2022/10/01 01:53:01;;;;;;;;;;;;;;;19.78;61.81;98587.03;2055744;28;20562;-49
2022/10/01 01:54:03;;;;;;;;;;;;;;;19.78;61.34;98589.72;2058507;28;19933;-49
2022/10/01 01:55:07;;;;;;;;;;;;;;;19.77;61.68;98590.75;2058997;28;20049;-48
2022/10/01 01:56:09;;;;;;;;;;;;;;;19.77;61.77;98589.91;2057827;28;20029;-49
2022/10/01 01:57:11;;;;;;;;;;;;;;;19.76;61.53;98585.59;2051083;28;19930;-51
2022/10/01 01:58:13;;;;;;;;;;;;;;;19.77;61.42;98592.63;2057210;28;19926;-49
2022/10/01 01:59:17;;;;;;;;;;;;;;;19.77;61.68;98592.63;2056003;28;20430;-49
2022/10/01 02:00:21;;;;;;;;;;;;;;;19.75;61.51;98590.16;2058503;28;19922;-50
2022/10/01 02:01:31;;;;;;;;;;;;;;;19.77;61.75;98596.13;2056583;28;20280;-49
2022/10/01 02:02:35;;;;;;;;;;;;;;;19.76;61.87;98596.34;2057659;28;20380;-49
2022/10/01 02:03:35;;;;;;;;;;;;;;;19.77;61.85;98593.44;2057236;28;19930;-51
2022/10/01 02:04:39;;;;;;;;;;;;;;;19.76;61.64;98597.19;2057001;28;20545;-51
2022/10/01 02:05:46;;;;;;;;;;;;;;;19.78;61.81;98603.19;2055913;28;19926;-50
2022/10/01 02:06:57;;;;;;;;;;;;;;;19.76;61.42;98601.75;2056396;28;19929;-49
2022/10/01 02:08:13;;;;;;;;;;;;;;;19.77;61.56;98609.59;2054418;28;19926;-50
2022/10/01 02:09:20;;;;;;;;;;;;;;;19.77;61.81;98601.50;2050345;28;19922;-52
2022/10/01 02:10:29;;;;;;;;;;;;;;;19.77;61.56;98604.19;2057600;28;19979;-49
2022/10/01 02:11:31;;;;;;;;;;;;;;;19.76;61.76;98602.56;2056472;28;20021;-53
2022/10/01 02:12:39;;;;;;;;;;;;;;;19.77;61.77;98609.59;2054214;28;19981;-49
2022/10/01 02:13:44;;;;;;;;;;;;;;;19.76;61.54;98607.13;2054673;28;20016;-51
2022/10/01 02:14:52;;;;;;;;;;;;;;;19.76;61.53;98607.94;2053914;28;20336;-49
2022/10/01 02:16:00;;;;;;;;;;;;;;;19.74;61.64;98593.88;2056250;28;19992;-49
2022/10/01 02:17:05;;;;;;;;;;;;;;;19.75;61.61;98598.22;2055232;28;19952;-49
2022/10/01 02:18:08;;;;;;;;;;;;;;;19.77;61.84;98603.38;2057631;28;19930;-50
2022/10/01 02:19:14;;;;;;;;;;;;;;;19.75;61.69;98600.91;2052741;28;19930;-50
2022/10/01 02:20:20;;;;;;;;;;;;;;;19.74;61.61;98604.63;2056363;28;19971;-50
2022/10/01 02:21:23;;;;;;;;;;;;;;;19.75;61.42;98598.22;2054766;28;19926;-52
2022/10/01 02:22:29;;;;;;;;;;;;;;;19.77;61.73;98601.50;2054842;28;19926;-49
2022/10/01 02:23:32;;;;;;;;;;;;;;;19.75;61.44;98602.75;2052669;28;20441;-50
2022/10/01 02:24:38;;;;;;;;;;;;;;;19.75;61.50;98597.38;2057530;28;20339;-50
2022/10/01 02:25:40;;;;;;;;;;;;;;;19.76;61.48;98601.75;2056091;28;19969;-50
2022/10/01 02:26:42;;;;;;;;;;;;;;;19.75;61.50;98600.91;2057869;28;19936;-48
2022/10/01 02:27:46;;;;;;;;;;;;;;;19.75;61.49;98603.59;2057568;28;20302;-50
2022/10/01 02:28:50;;;;;;;;;;;;;;;19.74;61.39;98604.63;2061066;28;19926;-50
2022/10/01 02:29:52;;;;;;;;;;;;;;;19.75;61.65;98611.69;2056164;28;19929;-49
2022/10/01 02:30:54;;;;;;;;;;;;;;;19.75;61.70;98614.38;2055256;28;19926;-49
2022/10/01 02:31:57;;;;;;;;;;;;;;;19.75;61.49;98606.31;2055643;28;20766;-50
2022/10/01 02:32:59;;;;;;;;;;;;;;;19.75;61.74;98605.44;2054188;28;20292;-49
2022/10/01 02:34:02;;;;;;;;;;;;;;;19.77;61.60;98604.19;2054780;28;19930;-51
2022/10/01 02:35:03;;;;;;;;;;;;;;;19.75;61.54;98595.53;2054113;28;19956;-49
2022/10/01 02:36:06;;;;;;;;;;;;;;;19.74;61.84;98599.25;2058551;28;19922;-52
2022/10/01 02:37:08;;;;;;;;;;;;;;;19.76;61.42;98604.44;2056382;28;19922;-49
2022/10/01 02:38:10;;;;;;;;;;;;;;;19.74;61.49;98596.56;2051971;28;19930;-51
2022/10/01 02:39:12;;;;;;;;;;;;;;;19.76;61.52;98590.97;2053590;28;19930;-51
2022/10/01 02:40:15;;;;;;;;;;;;;;;19.75;61.46;98600.91;2059642;28;19960;-48
2022/10/01 02:41:19;;;;;;;;;;;;;;;19.74;61.63;98599.25;2059243;28;20036;-49
2022/10/01 02:42:21;;;;;;;;;;;;;;;19.76;61.52;98607.13;2053081;28;19932;-49
2022/10/01 02:43:28;;;;;;;;;;;;;;;19.74;61.77;98601.94;2057580;28;19952;-49
2022/10/01 02:44:36;;;;;;;;;;;;;;;19.73;61.68;98608.38;2052806;28;19926;-49
2022/10/01 02:45:39;;;;;;;;;;;;;;;19.75;61.45;98605.44;2054307;28;19926;-49
2022/10/01 02:46:44;;;;;;;;;;;;;;;19.75;61.44;98606.31;2054345;28;19925;-49
2022/10/01 02:47:48;;;;;;;;;;;;;;;19.75;61.38;98603.59;2054651;28;19961;-48
2022/10/01 02:48:50;;;;;;;;;;;;;;;19.74;61.59;98614.56;2056157;28;19926;-49
2022/10/01 02:49:51;;;;;;;;;;;;;;;19.75;61.65;98610.84;2055976;28;19936;-53
2022/10/01 02:50:54;;;;;;;;;;;;;;;19.75;61.50;98606.31;2054372;28;20033;-51
2022/10/01 02:51:57;;;;;;;;;;;;;;;19.75;61.60;98610.84;2055381;28;19933;-51
2022/10/01 02:53:02;;;;;;;;;;;;;;;19.74;61.63;98612.69;2054076;28;19937;-51
2022/10/01 02:54:06;;;;;;;;;;;;;;;19.75;61.42;98617.06;2054401;28;19926;-49
2022/10/01 02:55:10;;;;;;;;;;;;;;;19.74;61.43;98609.19;2054754;28;19926;-52
2022/10/01 02:56:13;;;;;;;;;;;;;;;19.74;61.47;98615.38;2052443;28;19980;-49
2022/10/01 02:57:25;;;;;;;;;;;;;;;19.74;61.51;98615.38;2056812;28;20476;-53
2022/10/01 02:58:27;;;;;;;;;;;;;;;19.75;61.32;98619.75;2057818;28;20013;-50
2022/10/01 02:59:27;;;;;;;;;;;;;;;19.74;61.75;98622.66;2055953;28;19930;-49
2022/10/01 03:00:29;;;;;;;;;;;;;;;19.74;61.71;98625.34;2053763;28;19926;-48
2022/10/01 03:01:29;;;;;;;;;;;;;;;19.73;61.30;98619.13;2053485;28;19925;-49
2022/10/01 03:02:31;;;;;;;;;;;;;;;19.75;61.45;98625.13;2052603;28;20518;-50
2022/10/01 03:03:33;;;;;;;;;;;;;;;19.73;61.77;98624.50;2055462;28;20756;-51
2022/10/01 03:04:35;;;;;;;;;;;;;;;19.74;61.61;98630.72;2054038;28;19977;-50
2022/10/01 03:05:35;;;;;;;;;;;;;;;19.74;61.51;98634.22;2054963;28;19926;-49
2022/10/01 03:06:37;;;;;;;;;;;;;;;19.75;61.71;98635.91;2056446;28;19964;-52
2022/10/01 03:07:39;;;;;;;;;;;;;;;19.74;61.50;98636.91;2055760;28;19926;-49
2022/10/01 03:08:40;;;;;;;;;;;;;;;19.74;61.67;98634.22;2055704;28;19929;-49
2022/10/01 03:09:41;;;;;;;;;;;;;;;19.73;61.42;98634.47;2056041;28;19977;-51
2022/10/01 03:10:42;;;;;;;;;;;;;;;19.73;61.72;98635.28;2055927;28;19922;-49
2022/10/01 03:11:43;;;;;;;;;;;;;;;19.74;61.53;98642.31;2054030;28;19961;-50
2022/10/01 03:12:45;;;;;;;;;;;;;;;19.72;61.40;98636.28;2056087;28;19933;-48
2022/10/01 03:13:46;;;;;;;;;;;;;;;19.74;61.61;98641.47;2054576;28;19922;-49
2022/10/01 03:14:48;;;;;;;;;;;;;;;19.73;61.67;98637.97;2059032;28;20465;-50
2022/10/01 03:15:48;;;;;;;;;;;;;;;19.74;61.59;98645.00;2048853;28;19952;-51
2022/10/01 03:16:50;;;;;;;;;;;;;;;19.73;61.45;98648.72;2051531;28;20514;-50
2022/10/01 03:17:51;;;;;;;;;;;;;;;19.74;61.67;98644.16;2056233;28;20001;-50
2022/10/01 03:18:54;;;;;;;;;;;;;;;19.73;61.72;98646.03;2056252;28;19922;-49
2022/10/01 03:19:54;;;;;;;;;;;;;;;19.73;61.79;98648.72;2058540;28;20036;-48
2022/10/01 03:20:56;;;;;;;;;;;;;;;19.74;61.38;98647.69;2056819;28;19968;-49
2022/10/01 03:21:56;;;;;;;;;;;;;;;19.75;61.38;98659.28;2056074;28;19925;-48
2022/10/01 03:22:58;;;;;;;;;;;;;;;19.73;61.72;98662.19;2058803;28;20257;-48
2022/10/01 03:23:58;;;;;;;;;;;;;;;19.73;61.71;98662.19;2056823;28;20009;-47
2022/10/01 03:25:00;;;;;;;;;;;;;;;19.74;61.78;98660.31;2056854;28;19929;-51
2022/10/01 03:26:00;;;;;;;;;;;;;;;19.74;61.70;98660.31;2060038;28;20079;-47
2022/10/01 03:27:02;;;;;;;;;;;;;;;19.72;61.50;98663.22;2057419;28;19930;-48
2022/10/01 03:28:02;;;;;;;;;;;;;;;19.72;61.69;98663.22;2057351;28;19972;-48
2022/10/01 03:29:04;;;;;;;;;;;;;;;19.72;61.73;98660.50;2057416;28;19925;-48
2022/10/01 03:30:05;;;;;;;;;;;;;;;19.73;61.53;98667.56;2057354;28;19968;-47
2022/10/01 03:31:08;;;;;;;;;;;;;;;19.72;61.44;98665.91;2058763;28;20556;-50
2022/10/01 03:32:08;;;;;;;;;;;;;;;19.72;61.69;98665.91;2059635;28;19921;-47
2022/10/01 03:33:10;;;;;;;;;;;;;;;19.72;61.57;98665.06;2057581;28;22974;-47
2022/10/01 03:34:12;;;;;;;;;;;;;;;19.71;61.63;98664.25;2056358;28;19929;-48
2022/10/01 03:35:13;;;;;;;;;;;;;;;19.71;61.39;98664.25;2058030;28;19926;-52
2022/10/01 03:36:15;;;;;;;;;;;;;;;19.71;61.41;98664.25;2056596;28;20008;-48
2022/10/01 03:37:15;;;;;;;;;;;;;;;19.71;61.38;98669.63;2060080;28;19921;-49
2022/10/01 03:38:17;;;;;;;;;;;;;;;19.71;61.54;98672.31;2060403;28;20447;-49
2022/10/01 03:39:18;;;;;;;;;;;;;;;19.71;61.54;98669.63;2057637;28;20419;-49
2022/10/01 03:40:19;;;;;;;;;;;;;;;19.72;61.38;98671.28;2056770;28;19925;-49
2022/10/01 03:41:20;;;;;;;;;;;;;;;19.72;61.60;98676.66;2058535;28;20513;-48
2022/10/01 03:42:21;;;;;;;;;;;;;;;19.71;61.44;98666.94;2058100;28;19938;-48
2022/10/01 03:43:22;;;;;;;;;;;;;;;19.72;61.46;98673.16;2058760;28;19921;-50
2022/10/01 03:44:23;;;;;;;;;;;;;;;19.73;61.34;98674.81;2059154;28;19991;-49
2022/10/01 03:45:25;;;;;;;;;;;;;;;19.72;61.46;98675.84;2057311;28;19922;-48
2022/10/01 03:46:25;;;;;;;;;;;;;;;19.73;61.56;98680.19;2057069;28;19921;-48
2022/10/01 03:47:27;;;;;;;;;;;;;;;19.71;61.54;98677.72;2058749;28;19935;-49
2022/10/01 03:48:27;;;;;;;;;;;;;;;19.72;61.68;98671.28;2058280;28;19926;-48
2022/10/01 03:49:30;;;;;;;;;;;;;;;19.71;61.76;98668.81;2058513;28;19933;-49
2022/10/01 03:50:31;;;;;;;;;;;;;;;19.70;61.77;98668.00;2058893;28;20705;-49
2022/10/01 03:51:34;;;;;;;;;;;;;;;19.71;61.65;98671.50;2056706;28;19929;-50
2022/10/01 03:52:35;;;;;;;;;;;;;;;19.70;61.54;98673.38;2057307;28;19938;-48
2022/10/01 03:53:36;;;;;;;;;;;;;;;19.72;61.37;98667.75;2059080;28;20485;-47
2022/10/01 03:54:38;;;;;;;;;;;;;;;19.71;61.63;98679.56;2059924;28;19933;-50
2022/10/01 03:55:39;;;;;;;;;;;;;;;19.71;61.55;98680.41;2058037;28;19929;-49
2022/10/01 03:56:41;;;;;;;;;;;;;;;19.70;61.53;98678.75;2057156;28;19937;-49
2022/10/01 03:57:42;;;;;;;;;;;;;;;19.71;61.45;98677.72;2058323;28;20449;-46
2022/10/01 03:58:44;;;;;;;;;;;;;;;19.71;61.32;98680.41;2059942;28;20338;-48
2022/10/01 03:59:44;;;;;;;;;;;;;;;19.71;61.66;98685.78;2057884;28;19962;-49
2022/10/01 04:00:47;;;;;;;;;;;;;;;19.71;61.34;98684.97;2057776;28;20008;-49
2022/10/01 04:01:47;;;;;;;;;;;;;;;19.71;61.39;98684.97;2055956;28;19926;-48
2022/10/01 04:02:49;;;;;;;;;;;;;;;19.71;61.53;98691.16;2059138;28;20055;-48
2022/10/01 04:03:49;;;;;;;;;;;;;;;19.71;61.57;98690.34;2058952;28;19979;-48
2022/10/01 04:04:52;;;;;;;;;;;;;;;19.72;61.33;98690.13;2057286;28;20529;-48
2022/10/01 04:05:53;;;;;;;;;;;;;;;19.71;61.71;98690.34;2058422;28;19933;-49
2022/10/01 04:06:54;;;;;;;;;;;;;;;19.71;61.41;98685.78;2059030;28;20253;-49
2022/10/01 04:07:54;;;;;;;;;;;;;;;19.70;61.50;98686.84;2058499;28;20037;-47
2022/10/01 04:08:56;;;;;;;;;;;;;;;19.71;61.39;98680.41;2057648;28;19922;-48
2022/10/01 04:09:57;;;;;;;;;;;;;;;19.70;61.66;98668.00;2057383;28;20292;-48
2022/10/01 04:10:59;;;;;;;;;;;;;;;19.70;61.29;98670.69;2059219;28;20001;-48
2022/10/01 04:12:00;;;;;;;;;;;;;;;19.71;61.59;98674.19;2057515;28;20407;-48
2022/10/01 04:13:02;;;;;;;;;;;;;;;19.72;61.31;98670.47;2058690;28;19957;-48
2022/10/01 04:14:04;;;;;;;;;;;;;;;19.71;61.62;98675.03;2058384;28;19930;-48
2022/10/01 04:15:04;;;;;;;;;;;;;;;19.70;61.58;98678.75;2057227;28;19925;-49
2022/10/01 04:16:06;;;;;;;;;;;;;;;19.70;61.59;98686.00;2059335;28;19930;-47
2022/10/01 04:17:07;;;;;;;;;;;;;;;19.70;61.53;98681.44;2058111;28;20726;-48
2022/10/01 04:18:08;;;;;;;;;;;;;;;19.71;61.68;98684.97;2060581;28;19926;-47
2022/10/01 04:19:09;;;;;;;;;;;;;;;19.70;61.33;98681.44;2058909;28;19926;-48
2022/10/01 04:20:12;;;;;;;;;;;;;;;19.71;61.59;98682.28;2059164;28;19933;-49
2022/10/01 04:21:14;;;;;;;;;;;;;;;19.70;61.62;98677.94;2057790;28;19926;-48
2022/10/01 04:22:15;;;;;;;;;;;;;;;19.70;61.35;98677.94;2059561;28;20041;-48
2022/10/01 04:23:16;;;;;;;;;;;;;;;19.70;61.21;98680.63;2055727;28;20012;-48
2022/10/01 04:24:17;;;;;;;;;;;;;;;19.69;61.65;98671.69;2057631;28;19930;-49
2022/10/01 04:25:18;;;;;;;;;;;;;;;19.69;61.43;98677.09;2057393;28;19929;-49
2022/10/01 04:26:19;;;;;;;;;;;;;;;19.69;61.60;98679.78;2056802;28;19937;-48
2022/10/01 04:27:20;;;;;;;;;;;;;;;19.68;61.60;98690.75;2057938;28;19996;-55
2022/10/01 04:28:21;;;;;;;;;;;;;;;19.70;61.57;98689.53;2057079;28;19925;-48
2022/10/01 04:29:21;;;;;;;;;;;;;;;19.70;61.54;98689.53;2056872;28;19984;-48
2022/10/01 04:30:23;;;;;;;;;;;;;;;19.70;61.59;98692.22;2058254;28;19977;-49
2022/10/01 04:31:24;;;;;;;;;;;;;;;19.70;61.70;98697.59;2058719;28;19922;-48
2022/10/01 04:32:25;;;;;;;;;;;;;;;19.68;61.29;98691.59;2057868;28;19930;-47
2022/10/01 04:33:26;;;;;;;;;;;;;;;19.68;61.51;98694.28;2057334;28;19922;-51
2022/10/01 04:34:51;;;;;;;;;;;;;;;19.67;61.38;98692.63;2054897;28;19929;-50
2022/10/01 04:35:52;;;;;;;;;;;;;;;19.69;61.46;98697.78;2056221;28;20008;-48
2022/10/01 04:36:54;;;;;;;;;;;;;;;19.69;61.38;98695.91;2056883;28;20288;-50
2022/10/01 04:37:55;;;;;;;;;;;;;;;19.70;61.47;98705.66;2057854;28;19922;-49
2022/10/01 04:38:57;;;;;;;;;;;;;;;19.70;61.52;98699.47;2057504;28;19925;-51
2022/10/01 04:39:57;;;;;;;;;;;;;;;19.69;61.55;98697.78;2056900;28;20850;-49
2022/10/01 04:40:59;;;;;;;;;;;;;;;19.69;61.74;98701.31;2056699;28;20003;-51
2022/10/01 04:42:00;;;;;;;;;;;;;;;19.68;61.48;98694.28;2055921;28;20402;-51
2022/10/01 04:43:02;;;;;;;;;;;;;;;19.70;61.72;98702.16;2057770;28;19925;-49
2022/10/01 04:44:04;;;;;;;;;;;;;;;19.67;61.70;98700.72;2058014;28;19922;-48
2022/10/01 04:45:05;;;;;;;;;;;;;;;19.68;61.38;98699.66;2057985;28;19922;-50
2022/10/01 04:46:07;;;;;;;;;;;;;;;19.69;61.53;98697.78;2056466;28;19929;-48
2022/10/01 04:47:07;;;;;;;;;;;;;;;19.68;61.37;98690.75;2058012;28;19937;-49
2022/10/01 04:48:09;;;;;;;;;;;;;;;19.68;61.38;98691.59;2059069;28;19976;-52
2022/10/01 04:49:09;;;;;;;;;;;;;;;19.67;61.62;98692.63;2058637;28;19930;-47
2022/10/01 04:50:11;;;;;;;;;;;;;;;19.68;61.64;98696.97;2054349;28;19926;-46
2022/10/01 04:51:12;;;;;;;;;;;;;;;19.67;61.59;98687.25;2054394;28;19975;-47
2022/10/01 04:52:14;;;;;;;;;;;;;;;19.68;61.30;98696.97;2058054;28;19922;-48
2022/10/01 04:53:14;;;;;;;;;;;;;;;19.69;61.73;98695.09;2056823;28;19930;-50
2022/10/01 04:54:16;;;;;;;;;;;;;;;19.67;61.26;98695.31;2055307;28;19976;-48
2022/10/01 04:55:17;;;;;;;;;;;;;;;19.69;61.30;98698.63;2058764;28;19925;-50
2022/10/01 04:56:19;;;;;;;;;;;;;;;19.68;61.31;98694.28;2056845;28;19922;-51
2022/10/01 04:57:20;;;;;;;;;;;;;;;19.69;61.69;98704.00;2057337;28;19925;-47
2022/10/01 04:58:22;;;;;;;;;;;;;;;19.68;61.37;98696.16;2058182;28;19922;-47
2022/10/01 04:59:22;;;;;;;;;;;;;;;19.69;61.58;98700.47;2059144;28;19949;-48
2022/10/01 05:00:25;;;;;;;;;;;;;;;19.69;61.27;98697.78;2057448;28;20391;-50
2022/10/01 05:01:25;;;;;;;;;;;;;;;19.68;61.43;98705.03;2059248;28;19925;-50
2022/10/01 05:02:28;;;;;;;;;;;;;;;19.68;61.55;98702.34;2056431;28;24007;-50
2022/10/01 05:03:30;;;;;;;;;;;;;;;19.68;61.35;98705.03;2059040;28;19922;-47
2022/10/01 05:04:30;;;;;;;;;;;;;;;19.67;61.42;98706.09;2059672;28;19926;-47
2022/10/01 05:05:33;;;;;;;;;;;;;;;19.68;61.61;98706.91;2059738;28;20350;-48
2022/10/01 05:06:35;;;;;;;;;;;;;;;19.66;61.47;98701.72;2060387;28;19922;-48
2022/10/01 05:07:39;;;;;;;;;;;;;;;19.68;61.32;98704.22;2058380;28;20318;-49
2022/10/01 05:08:39;;;;;;;;;;;;;;;19.69;61.74;98711.25;2060281;28;19926;-47
2022/10/01 05:09:41;;;;;;;;;;;;;;;19.68;61.27;98718.50;2059803;28;20383;-48
2022/10/01 05:10:41;;;;;;;;;;;;;;;19.67;61.68;98716.84;2058252;28;20016;-48
2022/10/01 05:11:42;;;;;;;;;;;;;;;19.68;61.59;98712.28;2058295;28;19930;-47
2022/10/01 05:12:44;;;;;;;;;;;;;;;19.68;61.70;98713.13;2058690;28;20788;-49
2022/10/01 05:13:45;;;;;;;;;;;;;;;19.67;61.37;98714.16;2060312;28;19926;-48
2022/10/01 05:14:46;;;;;;;;;;;;;;;19.66;61.77;98714.34;2059303;28;19983;-49
2022/10/01 05:15:50;;;;;;;;;;;;;;;19.66;61.42;98720.56;2059382;28;20355;-47
2022/10/01 05:16:51;;;;;;;;;;;;;;;19.68;61.50;98707.72;2057879;28;19980;-47
2022/10/01 05:17:53;;;;;;;;;;;;;;;19.68;61.34;98717.66;2061262;28;19992;-49
2022/10/01 05:18:53;;;;;;;;;;;;;;;19.67;61.35;98710.63;2056975;28;19948;-47
2022/10/01 05:19:55;;;;;;;;;;;;;;;19.67;61.77;98713.31;2059457;28;19926;-49
2022/10/01 05:20:55;;;;;;;;;;;;;;;19.66;61.73;98714.34;2059977;28;19925;-49
2022/10/01 05:21:58;;;;;;;;;;;;;;;19.66;61.32;98706.28;2055788;28;19933;-48
2022/10/01 05:22:58;;;;;;;;;;;;;;;19.66;61.70;98715.19;2059814;28;20349;-49
2022/10/01 05:24:00;;;;;;;;;;;;;;;19.67;61.62;98716.84;2056952;28;19930;-49
2022/10/01 05:25:01;;;;;;;;;;;;;;;19.67;61.55;98719.53;2057393;28;19987;-51
2022/10/01 05:26:04;;;;;;;;;;;;;;;19.67;61.59;98722.22;2060199;28;19975;-47